createdAt,value
2019-05-02T00:08:51.472Z,57.80
2019-05-02T00:18:53.713Z,58.10
2019-05-02T00:28:55.646Z,58.70
2019-05-02T00:38:57.688Z,59.10
2019-05-02T00:49:01.821Z,59.60
2019-05-02T00:59:07.626Z,60.10
2019-05-02T01:09:11.141Z,60.50
2019-05-02T01:19:12.133Z,60.70
2019-05-02T01:29:15.629Z,61.10
2019-05-02T01:39:17.591Z,61.50
2019-05-02T01:49:21.891Z,62.20
2019-05-02T01:59:23.317Z,62.20
2019-05-02T02:09:25.421Z,62.30
2019-05-02T02:19:27.394Z,62.60
2019-05-02T02:29:29.474Z,63.30
2019-05-02T02:39:31.521Z,63.10
2019-05-02T02:49:33.573Z,63.10
2019-05-02T02:59:35.538Z,63.00
2019-05-02T03:09:37.457Z,62.60
2019-05-02T03:19:39.433Z,62.50
2019-05-02T03:29:44.488Z,62.60
2019-05-02T03:39:49.802Z,62.60
2019-05-02T03:49:52.380Z,62.60
2019-05-02T03:59:53.392Z,62.80
2019-05-02T04:09:57.398Z,63.10
2019-05-02T04:19:59.701Z,63.10
2019-05-02T04:30:09.718Z,62.80
2019-05-02T04:40:09.077Z,63.60
2019-05-02T04:50:17.823Z,62.90
2019-05-02T05:00:33.451Z,62.70
2019-05-02T05:10:40.258Z,62.50
2019-05-02T05:20:40.395Z,61.90
2019-05-02T05:30:45.286Z,61.70
2019-05-02T05:40:47.868Z,61.40
2019-05-02T05:50:49.540Z,60.90
2019-05-02T06:00:55.452Z,60.70
2019-05-02T06:10:55.375Z,60.20
2019-05-02T06:20:58.449Z,59.80
2019-05-02T06:31:02.134Z,59.30
2019-05-02T06:41:04.623Z,58.70
2019-05-02T06:51:10.901Z,58.00
2019-05-02T07:01:10.506Z,57.30
2019-05-02T07:11:12.519Z,56.20
2019-05-02T07:21:17.760Z,55.60
2019-05-02T07:31:18.348Z,55.40
2019-05-02T07:41:24.178Z,54.70
2019-05-02T07:51:24.268Z,53.80
2019-05-02T08:01:26.287Z,53.50
2019-05-02T08:11:32.317Z,53.40
2019-05-02T08:21:32.519Z,52.90
2019-05-02T08:31:35.928Z,52.80
2019-05-02T08:41:38.032Z,52.70
2019-05-02T08:51:41.556Z,52.70
2019-05-02T09:01:44.702Z,52.00
2019-05-02T09:11:57.535Z,50.90
2019-05-02T09:21:52.601Z,50.10
2019-05-02T09:31:54.720Z,48.60
2019-05-02T09:41:56.703Z,47.00
2019-05-02T09:52:00.635Z,46.90
2019-05-02T10:02:02.708Z,46.30
2019-05-02T10:12:04.744Z,46.80
2019-05-02T10:22:06.752Z,45.90
2019-05-02T10:32:15.084Z,45.70
2019-05-02T10:42:14.233Z,44.80
2019-05-02T10:52:16.213Z,43.30
2019-05-02T11:02:18.177Z,41.90
2019-05-02T11:12:23.955Z,40.40
2019-05-02T11:22:25.183Z,40.00
2019-05-02T11:32:27.279Z,38.60
2019-05-02T11:42:28.733Z,37.80
2019-05-02T11:52:33.049Z,35.00
2019-05-02T12:02:34.459Z,36.40
2019-05-02T12:12:36.398Z,35.30
2019-05-02T12:22:38.651Z,30.90
2019-05-02T12:32:42.719Z,30.20
2019-05-02T12:42:45.179Z,29.80
2019-05-02T12:52:47.152Z,25.60
2019-05-02T13:02:49.192Z,24.40
2019-05-02T13:12:53.087Z,27.50
2019-05-02T13:22:54.927Z,27.50
2019-05-02T13:32:57.974Z,27.90
2019-05-02T13:43:01.903Z,27.30
2019-05-02T13:53:03.936Z,29.50
2019-05-02T14:03:05.972Z,32.40
2019-05-02T14:13:07.952Z,34.80
2019-05-02T14:23:12.045Z,38.60
2019-05-02T14:33:13.676Z,42.70
2019-05-02T14:43:15.702Z,45.80
2019-05-02T14:53:22.139Z,47.40
2019-05-02T15:03:24.580Z,47.10
2019-05-02T15:13:25.443Z,47.50
2019-05-02T15:23:27.406Z,48.70
2019-05-02T15:33:29.446Z,49.40
2019-05-02T15:43:31.836Z,49.70
2019-05-02T15:53:33.935Z,50.90
2019-05-02T16:03:42.003Z,53.00
2019-05-02T16:13:39.778Z,54.70
2019-05-02T16:23:42.439Z,56.70
2019-05-02T16:33:44.537Z,59.50
2019-05-02T16:43:46.615Z,61.10
2019-05-02T16:53:48.632Z,62.70
2019-05-02T17:03:52.799Z,63.90
2019-05-02T17:13:54.687Z,65.00
2019-05-02T17:23:56.624Z,66.00
2019-05-02T17:33:58.615Z,67.20
2019-05-02T17:44:00.668Z,67.90
2019-05-02T17:54:04.593Z,68.40
2019-05-02T18:04:11.423Z,69.50
2019-05-02T18:14:19.333Z,70.20
2019-05-02T18:24:14.177Z,71.10
2019-05-02T18:34:21.351Z,71.60
2019-05-02T18:44:22.232Z,72.40
2019-05-02T18:54:24.261Z,73.10
2019-05-02T19:04:34.993Z,73.80
2019-05-02T19:14:30.018Z,74.40
2019-05-02T19:24:34.962Z,74.30
2019-05-02T19:34:35.707Z,74.90
2019-05-02T19:44:37.668Z,75.00
2019-05-02T19:54:41.178Z,75.60
2019-05-02T20:04:44.363Z,75.90
2019-05-02T20:14:47.593Z,76.00
2019-05-02T20:24:55.242Z,75.90
2019-05-02T20:34:53.744Z,76.00
2019-05-02T20:44:55.760Z,74.80
2019-05-02T20:54:57.807Z,74.30
2019-05-02T21:04:59.779Z,73.30
2019-05-02T21:15:02.160Z,72.80
2019-05-02T21:25:04.588Z,72.70
2019-05-02T21:35:08.360Z,72.70
2019-05-02T21:45:10.609Z,72.90
2019-05-02T21:55:12.856Z,72.80
2019-05-02T22:05:15.243Z,72.70
2019-05-02T22:15:17.199Z,72.60
2019-05-02T22:25:19.107Z,72.40
2019-05-02T22:35:21.692Z,73.10
2019-05-02T22:45:23.838Z,72.50
2019-05-02T22:55:25.843Z,72.70
2019-05-02T23:05:28.039Z,72.60
2019-05-02T23:15:32.092Z,72.40
2019-05-02T23:25:34.276Z,72.20
2019-05-02T23:35:36.359Z,72.20
2019-05-02T23:45:38.421Z,72.70
2019-05-02T23:55:40.436Z,73.00
